Jersey, AR

6:29 PM CST on January 22, 2017 (GMT -0600)
Smackover | | Change Station
Active Advisory: Lake Wind Advisory

Elev 121 ft 33.36 °N, 92.72 °W | Updated 2 seconds ago

Overcast
Overcast
55.0 °F
Feels Like 55.0 °F
N
8.5
Wind Variable Wind from NNW
Gusts 16.0 mph

Today
High -- | Low -- °F
--% Chance of Precip.
Yesterday
High -- | Low -- °F
Precip. -- in
Pressure 29.54 in
Visibility 10.0 miles
Clouds Mostly Cloudy 2400 ft
Overcast 3100 ft
Dew Point 52 °F
Humidity 89%
Rainfall Not available.
Snow Depth Not available.
7:10 AM 5:31 PM
Waning Crescent, 22% visible
METAR KCDH 230015Z AUTO 30007KT 10SM BKN024 OVC031 13/10 A2954 RMK AO2
Pressure 29.54 in
Visibility 10.0 miles
Clouds Mostly Cloudy 2400 ft
Overcast 3100 ft
Dew Point 52 °F
Humidity 89%
Rainfall Not available.
Snow Depth Not available.
7:10 AM 5:31 PM
Waning Crescent, 22% visible
METAR KCDH 230015Z AUTO 30007KT 10SM BKN024 OVC031 13/10 A2954 RMK AO2

Get Your Daily Forecast Email!

Thanks for signing up!

Be on the lookout for a verification email in your inbox.

You'll start receiving the daily forecast at 8 AM.

×

10-Day Weather Forecast

Almanac

Astronomy

Jan. 22, 2017 Rise Set
Actual Time
Civil Twilight
Nautical Twilight
Astronomical Twilight
Moon
Length of Visible Light
Length of Day
Tomorrow will be .
, % of the Moon is Illuminated

Today's Extremes

State Highs State Lows

Community

WunderPhotos

Upload Photos

1,962,540 photos uploaded!

WunderBlog® & News

Nearby

Air Quality

  Air Quality AQ Index Pollutant
Not available.

Snow Depth

Station Depth Elevation

Earthquake Activity

City Distance Mag. Time & Date
Minimum magnitude displayed is 2.5.

Coastal Water Temperatures

Place Temperature

Stations

Nearby Weather Stations

Station Location Temp. Windchill Dew Point Humidity Wind Precip. Elev Updated Type
                   

Watches & Warnings

Lake Wind Advisory
Issued: 2:10 PM CST Jan. 22, 2017 – National Weather Service

... Lake Wind Advisory remains in effect until 3 am CST Monday...

* event... gusty winds are expected.

* Areas affected... a large part of Arkansas.

* Timing... the strongest winds will be during the evening hours.

* Winds... winds of 15 to 25 mph are likely... with gusts to 35
mph.

* Impacts... winds will cause rough conditions on area bodies of
water.

Precautionary/preparedness actions...

A lake Wind Advisory indicates that winds will cause rough chop
on area lakes. Small boats will be especially prone to capsizing.



56